sensor_id;sensor_type;location;lat;lon;timestamp;P1;durP1;ratioP1;P2;durP2;ratioP2
16979;SDS011;42288;52.182;21.156;2022-12-24T00:01:00;37.70;;;21.10;;
16979;SDS011;42288;52.182;21.156;2022-12-24T00:03:26;35.57;;;20.40;;
16979;SDS011;42288;52.182;21.156;2022-12-24T00:05:52;34.40;;;19.03;;
16979;SDS011;42288;52.182;21.156;2022-12-24T00:08:17;30.90;;;17.83;;
16979;SDS011;42288;52.182;21.156;2022-12-24T00:10:43;25.67;;;15.40;;
16979;SDS011;42288;52.182;21.156;2022-12-24T00:13:09;30.00;;;17.27;;
16979;SDS011;42288;52.182;21.156;2022-12-24T00:15:34;33.80;;;17.33;;
16979;SDS011;42288;52.182;21.156;2022-12-24T00:18:00;30.83;;;17.33;;
16979;SDS011;42288;52.182;21.156;2022-12-24T00:20:25;27.70;;;15.90;;
16979;SDS011;42288;52.182;21.156;2022-12-24T00:22:51;27.37;;;15.67;;
16979;SDS011;42288;52.182;21.156;2022-12-24T00:25:16;31.13;;;17.80;;
16979;SDS011;42288;52.182;21.156;2022-12-24T00:27:42;29.00;;;17.13;;
16979;SDS011;42288;52.182;21.156;2022-12-24T00:30:08;35.23;;;21.13;;
16979;SDS011;42288;52.182;21.156;2022-12-24T00:32:33;36.50;;;19.97;;
16979;SDS011;42288;52.182;21.156;2022-12-24T00:34:59;31.07;;;18.97;;
16979;SDS011;42288;52.182;21.156;2022-12-24T00:37:25;34.20;;;19.37;;
16979;SDS011;42288;52.182;21.156;2022-12-24T00:39:50;35.17;;;19.50;;
16979;SDS011;42288;52.182;21.156;2022-12-24T00:42:16;36.37;;;18.13;;
16979;SDS011;42288;52.182;21.156;2022-12-24T00:44:41;33.27;;;18.37;;
16979;SDS011;42288;52.182;21.156;2022-12-24T00:47:07;33.03;;;18.40;;
16979;SDS011;42288;52.182;21.156;2022-12-24T00:49:32;34.67;;;18.33;;
16979;SDS011;42288;52.182;21.156;2022-12-24T00:51:58;37.60;;;19.57;;
16979;SDS011;42288;52.182;21.156;2022-12-24T00:54:23;35.67;;;18.80;;
16979;SDS011;42288;52.182;21.156;2022-12-24T00:56:49;36.53;;;19.63;;
16979;SDS011;42288;52.182;21.156;2022-12-24T00:59:14;32.83;;;17.87;;
16979;SDS011;42288;52.182;21.156;2022-12-24T01:01:40;32.87;;;18.03;;
16979;SDS011;42288;52.182;21.156;2022-12-24T01:04:06;40.27;;;22.03;;
16979;SDS011;42288;52.182;21.156;2022-12-24T01:07:00;40.33;;;20.10;;
16979;SDS011;42288;52.182;21.156;2022-12-24T01:09:26;36.40;;;19.47;;
16979;SDS011;42288;52.182;21.156;2022-12-24T01:11:51;31.20;;;17.07;;
16979;SDS011;42288;52.182;21.156;2022-12-24T01:14:17;33.73;;;17.10;;
16979;SDS011;42288;52.182;21.156;2022-12-24T01:16:42;38.20;;;19.57;;
16979;SDS011;42288;52.182;21.156;2022-12-24T01:19:08;43.80;;;20.87;;
16979;SDS011;42288;52.182;21.156;2022-12-24T01:21:33;58.23;;;22.47;;
16979;SDS011;42288;52.182;21.156;2022-12-24T01:23:59;43.77;;;21.60;;
16979;SDS011;42288;52.182;21.156;2022-12-24T01:26:24;52.10;;;21.97;;
16979;SDS011;42288;52.182;21.156;2022-12-24T01:28:50;47.10;;;20.23;;
16979;SDS011;42288;52.182;21.156;2022-12-24T01:31:17;47.40;;;21.77;;
16979;SDS011;42288;52.182;21.156;2022-12-24T01:33:43;45.87;;;21.20;;
16979;SDS011;42288;52.182;21.156;2022-12-24T01:36:10;88.20;;;24.00;;
16979;SDS011;42288;52.182;21.156;2022-12-24T01:38:36;57.90;;;20.97;;
16979;SDS011;42288;52.182;21.156;2022-12-24T01:41:02;43.97;;;21.40;;
16979;SDS011;42288;52.182;21.156;2022-12-24T01:43:46;55.10;;;23.87;;
16979;SDS011;42288;52.182;21.156;2022-12-24T01:46:16;125.33;;;26.93;;
16979;SDS011;42288;52.182;21.156;2022-12-24T01:48:54;121.80;;;32.70;;
16979;SDS011;42288;52.182;21.156;2022-12-24T01:51:29;49.70;;;23.53;;
16979;SDS011;42288;52.182;21.156;2022-12-24T01:54:10;123.37;;;29.50;;
16979;SDS011;42288;52.182;21.156;2022-12-24T01:56:50;101.97;;;28.73;;
16979;SDS011;42288;52.182;21.156;2022-12-24T01:59:20;83.17;;;26.37;;
16979;SDS011;42288;52.182;21.156;2022-12-24T02:01:47;74.27;;;27.03;;
16979;SDS011;42288;52.182;21.156;2022-12-24T02:07:02;116.10;;;30.40;;
16979;SDS011;42288;52.182;21.156;2022-12-24T02:09:28;135.47;;;28.97;;
16979;SDS011;42288;52.182;21.156;2022-12-24T02:11:54;57.20;;;24.37;;
16979;SDS011;42288;52.182;21.156;2022-12-24T02:14:21;71.53;;;25.70;;
16979;SDS011;42288;52.182;21.156;2022-12-24T02:16:57;51.80;;;24.20;;
16979;SDS011;42288;52.182;21.156;2022-12-24T02:31:19;60.30;;;24.27;;
16979;SDS011;42288;52.182;21.156;2022-12-24T02:36:45;64.57;;;25.43;;
16979;SDS011;42288;52.182;21.156;2022-12-24T02:39:43;73.57;;;27.17;;
16979;SDS011;42288;52.182;21.156;2022-12-24T02:42:10;91.10;;;26.93;;
16979;SDS011;42288;52.182;21.156;2022-12-24T02:44:41;71.70;;;27.00;;
16979;SDS011;42288;52.182;21.156;2022-12-24T02:47:12;64.50;;;27.47;;
16979;SDS011;42288;52.182;21.156;2022-12-24T02:49:41;62.07;;;24.13;;
16979;SDS011;42288;52.182;21.156;2022-12-24T02:52:26;59.03;;;25.47;;
16979;SDS011;42288;52.182;21.156;2022-12-24T02:55:01;81.47;;;26.93;;
16979;SDS011;42288;52.182;21.156;2022-12-24T02:57:58;83.73;;;24.83;;
16979;SDS011;42288;52.182;21.156;2022-12-24T03:01:33;66.23;;;24.17;;
16979;SDS011;42288;52.182;21.156;2022-12-24T03:06:43;112.70;;;23.40;;
16979;SDS011;42288;52.182;21.156;2022-12-24T03:09:37;101.07;;;23.93;;
16979;SDS011;42288;52.182;21.156;2022-12-24T03:12:31;71.80;;;21.90;;
16979;SDS011;42288;52.182;21.156;2022-12-24T03:14:59;48.30;;;20.20;;
16979;SDS011;42288;52.182;21.156;2022-12-24T03:17:26;64.87;;;21.53;;
16979;SDS011;42288;52.182;21.156;2022-12-24T03:19:53;64.33;;;20.33;;
16979;SDS011;42288;52.182;21.156;2022-12-24T03:22:19;70.93;;;20.23;;
16979;SDS011;42288;52.182;21.156;2022-12-24T03:24:47;73.90;;;21.13;;
16979;SDS011;42288;52.182;21.156;2022-12-24T03:27:13;77.07;;;21.33;;
16979;SDS011;42288;52.182;21.156;2022-12-24T03:29:40;50.30;;;20.63;;
16979;SDS011;42288;52.182;21.156;2022-12-24T03:32:06;45.77;;;19.63;;
16979;SDS011;42288;52.182;21.156;2022-12-24T03:34:32;99.27;;;22.33;;
16979;SDS011;42288;52.182;21.156;2022-12-24T03:36:58;75.20;;;21.57;;
16979;SDS011;42288;52.182;21.156;2022-12-24T03:39:23;36.63;;;17.87;;
16979;SDS011;42288;52.182;21.156;2022-12-24T03:41:49;40.00;;;18.30;;
16979;SDS011;42288;52.182;21.156;2022-12-24T03:44:15;38.40;;;18.20;;
16979;SDS011;42288;52.182;21.156;2022-12-24T03:46:40;39.57;;;18.97;;
16979;SDS011;42288;52.182;21.156;2022-12-24T03:49:06;45.73;;;21.20;;
16979;SDS011;42288;52.182;21.156;2022-12-24T03:51:32;34.10;;;18.13;;
16979;SDS011;42288;52.182;21.156;2022-12-24T03:53:57;36.60;;;17.83;;
16979;SDS011;42288;52.182;21.156;2022-12-24T03:56:24;37.57;;;17.57;;
16979;SDS011;42288;52.182;21.156;2022-12-24T03:58:50;32.90;;;16.70;;
16979;SDS011;42288;52.182;21.156;2022-12-24T04:01:16;34.87;;;18.37;;
16979;SDS011;42288;52.182;21.156;2022-12-24T04:03:42;33.37;;;17.87;;
16979;SDS011;42288;52.182;21.156;2022-12-24T04:06:12;39.57;;;18.20;;
16979;SDS011;42288;52.182;21.156;2022-12-24T04:08:40;36.67;;;17.57;;
16979;SDS011;42288;52.182;21.156;2022-12-24T04:11:06;30.00;;;15.30;;
16979;SDS011;42288;52.182;21.156;2022-12-24T04:13:34;33.77;;;17.40;;
16979;SDS011;42288;52.182;21.156;2022-12-24T04:16:00;34.03;;;16.57;;
16979;SDS011;42288;52.182;21.156;2022-12-24T04:18:28;28.43;;;15.53;;
16979;SDS011;42288;52.182;21.156;2022-12-24T04:20:54;30.83;;;15.67;;
16979;SDS011;42288;52.182;21.156;2022-12-24T04:23:20;34.07;;;16.97;;
16979;SDS011;42288;52.182;21.156;2022-12-24T04:25:46;35.10;;;17.33;;
16979;SDS011;42288;52.182;21.156;2022-12-24T04:28:11;35.43;;;17.83;;
16979;SDS011;42288;52.182;21.156;2022-12-24T04:30:38;35.37;;;17.30;;
16979;SDS011;42288;52.182;21.156;2022-12-24T04:33:04;30.70;;;15.47;;
16979;SDS011;42288;52.182;21.156;2022-12-24T04:35:30;30.70;;;16.20;;
16979;SDS011;42288;52.182;21.156;2022-12-24T04:37:55;35.30;;;17.60;;
16979;SDS011;42288;52.182;21.156;2022-12-24T04:40:21;26.50;;;13.93;;
16979;SDS011;42288;52.182;21.156;2022-12-24T04:42:47;29.40;;;14.53;;
16979;SDS011;42288;52.182;21.156;2022-12-24T04:45:14;35.40;;;16.37;;
16979;SDS011;42288;52.182;21.156;2022-12-24T04:47:40;28.67;;;15.37;;
16979;SDS011;42288;52.182;21.156;2022-12-24T04:50:06;26.83;;;14.90;;
16979;SDS011;42288;52.182;21.156;2022-12-24T04:52:32;29.40;;;14.87;;
16979;SDS011;42288;52.182;21.156;2022-12-24T04:54:58;29.50;;;14.50;;
16979;SDS011;42288;52.182;21.156;2022-12-24T04:57:23;28.67;;;14.60;;
16979;SDS011;42288;52.182;21.156;2022-12-24T04:59:49;25.13;;;13.93;;
16979;SDS011;42288;52.182;21.156;2022-12-24T05:02:15;28.70;;;15.40;;
16979;SDS011;42288;52.182;21.156;2022-12-24T05:04:40;26.20;;;14.50;;
16979;SDS011;42288;52.182;21.156;2022-12-24T05:07:06;26.40;;;12.93;;
16979;SDS011;42288;52.182;21.156;2022-12-24T05:09:31;27.77;;;16.37;;
16979;SDS011;42288;52.182;21.156;2022-12-24T05:11:57;26.70;;;14.33;;
16979;SDS011;42288;52.182;21.156;2022-12-24T05:14:22;28.80;;;15.50;;
16979;SDS011;42288;52.182;21.156;2022-12-24T05:16:48;26.70;;;14.77;;
16979;SDS011;42288;52.182;21.156;2022-12-24T05:19:13;29.97;;;16.90;;
16979;SDS011;42288;52.182;21.156;2022-12-24T05:21:39;27.57;;;14.77;;
16979;SDS011;42288;52.182;21.156;2022-12-24T05:24:04;28.60;;;15.53;;
16979;SDS011;42288;52.182;21.156;2022-12-24T05:26:50;27.43;;;14.60;;
16979;SDS011;42288;52.182;21.156;2022-12-24T05:29:18;27.73;;;14.80;;
16979;SDS011;42288;52.182;21.156;2022-12-24T05:31:45;29.70;;;15.50;;
16979;SDS011;42288;52.182;21.156;2022-12-24T05:34:11;30.33;;;14.47;;
16979;SDS011;42288;52.182;21.156;2022-12-24T05:36:38;29.30;;;14.90;;
16979;SDS011;42288;52.182;21.156;2022-12-24T05:39:04;28.90;;;14.83;;
16979;SDS011;42288;52.182;21.156;2022-12-24T05:41:30;28.13;;;15.77;;
16979;SDS011;42288;52.182;21.156;2022-12-24T05:43:56;29.80;;;15.13;;
16979;SDS011;42288;52.182;21.156;2022-12-24T05:46:22;29.27;;;15.13;;
16979;SDS011;42288;52.182;21.156;2022-12-24T05:48:49;26.53;;;13.30;;
16979;SDS011;42288;52.182;21.156;2022-12-24T05:51:16;29.47;;;15.40;;
16979;SDS011;42288;52.182;21.156;2022-12-24T05:53:43;27.10;;;14.20;;
16979;SDS011;42288;52.182;21.156;2022-12-24T05:56:11;25.13;;;13.13;;
16979;SDS011;42288;52.182;21.156;2022-12-24T05:58:39;28.67;;;15.97;;
16979;SDS011;42288;52.182;21.156;2022-12-24T06:01:05;26.20;;;13.27;;
16979;SDS011;42288;52.182;21.156;2022-12-24T06:03:32;28.67;;;14.40;;
16979;SDS011;42288;52.182;21.156;2022-12-24T06:05:59;28.80;;;15.00;;
16979;SDS011;42288;52.182;21.156;2022-12-24T06:08:32;24.97;;;12.93;;
16979;SDS011;42288;52.182;21.156;2022-12-24T06:10:59;30.07;;;14.47;;
16979;SDS011;42288;52.182;21.156;2022-12-24T06:13:26;25.10;;;13.13;;
16979;SDS011;42288;52.182;21.156;2022-12-24T06:15:55;25.83;;;13.90;;
16979;SDS011;42288;52.182;21.156;2022-12-24T06:18:21;23.23;;;11.23;;
16979;SDS011;42288;52.182;21.156;2022-12-24T06:20:53;27.00;;;13.63;;
16979;SDS011;42288;52.182;21.156;2022-12-24T06:23:20;28.13;;;13.23;;
16979;SDS011;42288;52.182;21.156;2022-12-24T06:25:47;21.97;;;11.53;;
16979;SDS011;42288;52.182;21.156;2022-12-24T06:28:13;22.20;;;11.53;;
16979;SDS011;42288;52.182;21.156;2022-12-24T06:30:39;22.13;;;11.37;;
16979;SDS011;42288;52.182;21.156;2022-12-24T06:33:05;20.40;;;10.77;;
16979;SDS011;42288;52.182;21.156;2022-12-24T06:35:31;23.17;;;11.40;;
16979;SDS011;42288;52.182;21.156;2022-12-24T06:37:57;23.47;;;11.33;;
16979;SDS011;42288;52.182;21.156;2022-12-24T06:40:23;22.17;;;11.37;;
16979;SDS011;42288;52.182;21.156;2022-12-24T06:42:50;23.13;;;11.83;;
16979;SDS011;42288;52.182;21.156;2022-12-24T06:45:16;21.50;;;11.30;;
16979;SDS011;42288;52.182;21.156;2022-12-24T06:47:41;22.57;;;11.63;;
16979;SDS011;42288;52.182;21.156;2022-12-24T06:50:07;20.53;;;10.43;;
16979;SDS011;42288;52.182;21.156;2022-12-24T06:52:33;24.67;;;11.20;;
16979;SDS011;42288;52.182;21.156;2022-12-24T06:54:58;20.07;;;10.07;;
16979;SDS011;42288;52.182;21.156;2022-12-24T06:57:24;21.67;;;11.67;;
16979;SDS011;42288;52.182;21.156;2022-12-24T06:59:49;19.13;;;10.03;;
16979;SDS011;42288;52.182;21.156;2022-12-24T07:02:15;24.90;;;12.57;;
16979;SDS011;42288;52.182;21.156;2022-12-24T07:04:41;24.63;;;12.27;;
16979;SDS011;42288;52.182;21.156;2022-12-24T07:07:06;24.63;;;11.37;;
16979;SDS011;42288;52.182;21.156;2022-12-24T07:09:32;26.17;;;12.37;;
16979;SDS011;42288;52.182;21.156;2022-12-24T07:11:57;22.37;;;11.20;;
16979;SDS011;42288;52.182;21.156;2022-12-24T07:14:23;25.93;;;12.60;;
16979;SDS011;42288;52.182;21.156;2022-12-24T07:16:48;26.67;;;13.33;;
16979;SDS011;42288;52.182;21.156;2022-12-24T07:19:14;25.03;;;12.97;;
16979;SDS011;42288;52.182;21.156;2022-12-24T07:21:40;22.77;;;11.87;;
16979;SDS011;42288;52.182;21.156;2022-12-24T07:24:05;25.40;;;12.37;;
16979;SDS011;42288;52.182;21.156;2022-12-24T07:26:31;22.33;;;11.57;;
16979;SDS011;42288;52.182;21.156;2022-12-24T07:28:56;23.03;;;10.73;;
16979;SDS011;42288;52.182;21.156;2022-12-24T07:31:22;25.57;;;12.63;;
16979;SDS011;42288;52.182;21.156;2022-12-24T07:33:47;28.97;;;13.93;;
16979;SDS011;42288;52.182;21.156;2022-12-24T07:36:14;31.93;;;15.27;;
16979;SDS011;42288;52.182;21.156;2022-12-24T07:38:43;28.70;;;13.50;;
16979;SDS011;42288;52.182;21.156;2022-12-24T07:41:09;27.90;;;13.47;;
16979;SDS011;42288;52.182;21.156;2022-12-24T07:43:35;29.63;;;14.57;;
16979;SDS011;42288;52.182;21.156;2022-12-24T07:46:00;28.90;;;12.97;;
16979;SDS011;42288;52.182;21.156;2022-12-24T07:48:26;22.10;;;11.77;;
16979;SDS011;42288;52.182;21.156;2022-12-24T07:50:53;23.60;;;11.83;;
16979;SDS011;42288;52.182;21.156;2022-12-24T07:53:19;23.50;;;12.60;;
16979;SDS011;42288;52.182;21.156;2022-12-24T07:55:45;26.37;;;12.93;;
16979;SDS011;42288;52.182;21.156;2022-12-24T07:58:11;27.60;;;12.87;;
16979;SDS011;42288;52.182;21.156;2022-12-24T08:00:36;28.33;;;13.70;;
16979;SDS011;42288;52.182;21.156;2022-12-24T08:03:02;22.50;;;11.53;;
16979;SDS011;42288;52.182;21.156;2022-12-24T08:05:28;25.67;;;13.17;;
16979;SDS011;42288;52.182;21.156;2022-12-24T08:07:57;21.70;;;11.30;;
16979;SDS011;42288;52.182;21.156;2022-12-24T08:10:22;22.73;;;11.97;;
16979;SDS011;42288;52.182;21.156;2022-12-24T08:12:48;24.63;;;11.57;;
16979;SDS011;42288;52.182;21.156;2022-12-24T08:15:14;22.70;;;11.67;;
16979;SDS011;42288;52.182;21.156;2022-12-24T08:17:40;21.87;;;11.27;;
16979;SDS011;42288;52.182;21.156;2022-12-24T08:20:05;21.83;;;11.27;;
16979;SDS011;42288;52.182;21.156;2022-12-24T08:22:32;23.53;;;12.30;;
16979;SDS011;42288;52.182;21.156;2022-12-24T08:24:57;23.50;;;11.93;;
16979;SDS011;42288;52.182;21.156;2022-12-24T08:27:23;20.17;;;10.87;;
16979;SDS011;42288;52.182;21.156;2022-12-24T08:29:48;21.33;;;11.50;;
16979;SDS011;42288;52.182;21.156;2022-12-24T08:32:14;23.00;;;11.33;;
16979;SDS011;42288;52.182;21.156;2022-12-24T08:34:39;25.73;;;13.57;;
16979;SDS011;42288;52.182;21.156;2022-12-24T08:37:05;21.43;;;10.93;;
16979;SDS011;42288;52.182;21.156;2022-12-24T08:39:30;20.93;;;11.23;;
16979;SDS011;42288;52.182;21.156;2022-12-24T08:41:56;21.70;;;11.87;;
16979;SDS011;42288;52.182;21.156;2022-12-24T08:44:22;24.13;;;12.40;;
16979;SDS011;42288;52.182;21.156;2022-12-24T08:46:47;26.80;;;13.47;;
16979;SDS011;42288;52.182;21.156;2022-12-24T08:49:13;21.60;;;12.30;;
16979;SDS011;42288;52.182;21.156;2022-12-24T08:51:38;20.30;;;11.00;;
16979;SDS011;42288;52.182;21.156;2022-12-24T08:54:04;22.07;;;12.33;;
16979;SDS011;42288;52.182;21.156;2022-12-24T08:56:29;21.77;;;11.47;;
16979;SDS011;42288;52.182;21.156;2022-12-24T08:58:55;21.43;;;10.97;;
16979;SDS011;42288;52.182;21.156;2022-12-24T09:01:20;21.97;;;11.10;;
16979;SDS011;42288;52.182;21.156;2022-12-24T09:03:46;21.50;;;10.70;;
16979;SDS011;42288;52.182;21.156;2022-12-24T09:06:12;18.23;;;9.80;;
16979;SDS011;42288;52.182;21.156;2022-12-24T09:08:39;17.20;;;9.90;;
16979;SDS011;42288;52.182;21.156;2022-12-24T09:11:05;21.97;;;11.43;;
16979;SDS011;42288;52.182;21.156;2022-12-24T09:13:32;18.73;;;10.07;;
16979;SDS011;42288;52.182;21.156;2022-12-24T09:15:58;20.27;;;10.90;;
16979;SDS011;42288;52.182;21.156;2022-12-24T09:18:24;18.37;;;9.30;;
16979;SDS011;42288;52.182;21.156;2022-12-24T09:20:49;18.60;;;9.77;;
16979;SDS011;42288;52.182;21.156;2022-12-24T09:23:15;19.67;;;10.93;;
16979;SDS011;42288;52.182;21.156;2022-12-24T09:25:41;19.83;;;10.07;;
16979;SDS011;42288;52.182;21.156;2022-12-24T09:28:07;21.13;;;11.53;;
16979;SDS011;42288;52.182;21.156;2022-12-24T09:30:34;19.67;;;10.03;;
16979;SDS011;42288;52.182;21.156;2022-12-24T09:33:00;18.70;;;10.50;;
16979;SDS011;42288;52.182;21.156;2022-12-24T09:35:26;13.47;;;8.33;;
16979;SDS011;42288;52.182;21.156;2022-12-24T09:37:51;13.70;;;8.17;;
16979;SDS011;42288;52.182;21.156;2022-12-24T09:40:28;15.30;;;8.73;;
16979;SDS011;42288;52.182;21.156;2022-12-24T09:43:00;14.03;;;8.33;;
16979;SDS011;42288;52.182;21.156;2022-12-24T09:45:39;14.13;;;8.23;;
16979;SDS011;42288;52.182;21.156;2022-12-24T09:48:14;16.03;;;8.67;;
16979;SDS011;42288;52.182;21.156;2022-12-24T09:50:58;14.30;;;9.43;;
16979;SDS011;42288;52.182;21.156;2022-12-24T09:56:12;14.17;;;8.33;;
16979;SDS011;42288;52.182;21.156;2022-12-24T09:58:42;13.73;;;8.33;;
16979;SDS011;42288;52.182;21.156;2022-12-24T10:01:14;13.47;;;7.33;;
16979;SDS011;42288;52.182;21.156;2022-12-24T10:03:41;14.37;;;8.07;;
16979;SDS011;42288;52.182;21.156;2022-12-24T10:06:09;12.63;;;7.87;;
16979;SDS011;42288;52.182;21.156;2022-12-24T10:08:41;14.43;;;8.47;;
16979;SDS011;42288;52.182;21.156;2022-12-24T10:20:38;14.47;;;7.97;;
16979;SDS011;42288;52.182;21.156;2022-12-24T10:25:37;13.77;;;7.70;;
16979;SDS011;42288;52.182;21.156;2022-12-24T10:28:14;15.03;;;9.03;;
16979;SDS011;42288;52.182;21.156;2022-12-24T10:30:43;13.17;;;7.53;;
16979;SDS011;42288;52.182;21.156;2022-12-24T10:33:21;13.60;;;7.93;;
16979;SDS011;42288;52.182;21.156;2022-12-24T10:36:02;12.73;;;8.40;;
16979;SDS011;42288;52.182;21.156;2022-12-24T10:38:29;15.63;;;8.33;;
16979;SDS011;42288;52.182;21.156;2022-12-24T10:40:57;14.10;;;8.13;;
16979;SDS011;42288;52.182;21.156;2022-12-24T10:43:24;14.30;;;8.60;;
16979;SDS011;42288;52.182;21.156;2022-12-24T10:46:04;14.27;;;8.37;;
16979;SDS011;42288;52.182;21.156;2022-12-24T10:48:37;15.23;;;8.23;;
16979;SDS011;42288;52.182;21.156;2022-12-24T10:56:42;14.93;;;8.80;;
16979;SDS011;42288;52.182;21.156;2022-12-24T10:59:30;13.93;;;8.03;;
16979;SDS011;42288;52.182;21.156;2022-12-24T11:02:28;17.53;;;10.30;;
16979;SDS011;42288;52.182;21.156;2022-12-24T11:04:55;15.67;;;8.70;;
16979;SDS011;42288;52.182;21.156;2022-12-24T11:07:24;14.67;;;9.07;;
16979;SDS011;42288;52.182;21.156;2022-12-24T11:09:54;16.83;;;10.30;;
16979;SDS011;42288;52.182;21.156;2022-12-24T11:12:25;15.50;;;9.37;;
16979;SDS011;42288;52.182;21.156;2022-12-24T11:14:58;14.40;;;8.63;;
16979;SDS011;42288;52.182;21.156;2022-12-24T11:17:39;15.43;;;8.67;;
16979;SDS011;42288;52.182;21.156;2022-12-24T11:20:05;16.60;;;8.73;;
16979;SDS011;42288;52.182;21.156;2022-12-24T11:22:40;16.63;;;9.23;;
16979;SDS011;42288;52.182;21.156;2022-12-24T11:25:27;15.73;;;8.83;;
16979;SDS011;42288;52.182;21.156;2022-12-24T11:27:53;16.03;;;9.37;;
16979;SDS011;42288;52.182;21.156;2022-12-24T11:30:30;15.47;;;8.73;;
16979;SDS011;42288;52.182;21.156;2022-12-24T11:35:24;16.07;;;8.33;;
16979;SDS011;42288;52.182;21.156;2022-12-24T11:38:07;17.87;;;8.13;;
16979;SDS011;42288;52.182;21.156;2022-12-24T11:40:42;15.23;;;9.10;;
16979;SDS011;42288;52.182;21.156;2022-12-24T11:43:33;14.20;;;8.30;;
16979;SDS011;42288;52.182;21.156;2022-12-24T11:46:21;14.43;;;7.43;;
16979;SDS011;42288;52.182;21.156;2022-12-24T11:49:21;13.03;;;8.17;;
16979;SDS011;42288;52.182;21.156;2022-12-24T11:57:25;18.57;;;9.57;;
16979;SDS011;42288;52.182;21.156;2022-12-24T11:59:55;14.53;;;7.77;;
16979;SDS011;42288;52.182;21.156;2022-12-24T12:02:22;18.70;;;9.70;;
16979;SDS011;42288;52.182;21.156;2022-12-24T12:04:58;20.77;;;9.43;;
16979;SDS011;42288;52.182;21.156;2022-12-24T12:07:29;30.00;;;11.97;;
16979;SDS011;42288;52.182;21.156;2022-12-24T12:10:10;20.10;;;10.17;;
16979;SDS011;42288;52.182;21.156;2022-12-24T12:12:43;18.00;;;9.00;;
16979;SDS011;42288;52.182;21.156;2022-12-24T12:15:14;17.37;;;8.63;;
16979;SDS011;42288;52.182;21.156;2022-12-24T12:22:49;18.60;;;9.40;;
16979;SDS011;42288;52.182;21.156;2022-12-24T12:28:12;19.33;;;10.10;;
16979;SDS011;42288;52.182;21.156;2022-12-24T12:30:44;21.03;;;11.50;;
16979;SDS011;42288;52.182;21.156;2022-12-24T12:33:30;21.30;;;10.70;;
16979;SDS011;42288;52.182;21.156;2022-12-24T12:36:03;19.60;;;11.07;;
16979;SDS011;42288;52.182;21.156;2022-12-24T12:38:31;21.17;;;11.03;;
16979;SDS011;42288;52.182;21.156;2022-12-24T12:41:03;18.60;;;10.27;;
16979;SDS011;42288;52.182;21.156;2022-12-24T12:46:55;18.37;;;9.63;;
16979;SDS011;42288;52.182;21.156;2022-12-24T12:58:40;20.87;;;11.20;;
16979;SDS011;42288;52.182;21.156;2022-12-24T13:01:25;20.27;;;10.03;;
16979;SDS011;42288;52.182;21.156;2022-12-24T13:13:08;18.70;;;10.70;;
16979;SDS011;42288;52.182;21.156;2022-12-24T13:21:43;24.77;;;12.53;;
16979;SDS011;42288;52.182;21.156;2022-12-24T13:24:16;23.97;;;12.77;;
16979;SDS011;42288;52.182;21.156;2022-12-24T13:32:35;32.07;;;15.43;;
16979;SDS011;42288;52.182;21.156;2022-12-24T13:35:03;26.77;;;11.87;;
16979;SDS011;42288;52.182;21.156;2022-12-24T13:37:44;36.00;;;13.90;;
16979;SDS011;42288;52.182;21.156;2022-12-24T13:47:57;28.63;;;12.43;;
16979;SDS011;42288;52.182;21.156;2022-12-24T13:50:39;28.13;;;12.50;;
16979;SDS011;42288;52.182;21.156;2022-12-24T13:53:19;30.57;;;14.07;;
16979;SDS011;42288;52.182;21.156;2022-12-24T13:55:53;22.17;;;10.93;;
16979;SDS011;42288;52.182;21.156;2022-12-24T13:58:20;23.83;;;12.10;;
16979;SDS011;42288;52.182;21.156;2022-12-24T14:00:56;23.63;;;12.97;;
16979;SDS011;42288;52.182;21.156;2022-12-24T14:05:51;24.93;;;12.87;;
16979;SDS011;42288;52.182;21.156;2022-12-24T14:16:02;26.70;;;14.00;;
16979;SDS011;42288;52.182;21.156;2022-12-24T14:18:30;29.50;;;14.57;;
16979;SDS011;42288;52.182;21.156;2022-12-24T14:20:58;25.03;;;12.87;;
16979;SDS011;42288;52.182;21.156;2022-12-24T14:23:28;26.83;;;13.77;;
16979;SDS011;42288;52.182;21.156;2022-12-24T14:26:00;30.83;;;15.17;;
16979;SDS011;42288;52.182;21.156;2022-12-24T14:28:30;34.57;;;16.67;;
16979;SDS011;42288;52.182;21.156;2022-12-24T14:31:03;33.63;;;14.70;;
16979;SDS011;42288;52.182;21.156;2022-12-24T14:33:30;38.17;;;16.23;;
16979;SDS011;42288;52.182;21.156;2022-12-24T14:35:58;41.40;;;17.90;;
16979;SDS011;42288;52.182;21.156;2022-12-24T14:38:25;43.67;;;18.40;;
16979;SDS011;42288;52.182;21.156;2022-12-24T14:43:47;39.27;;;17.40;;
16979;SDS011;42288;52.182;21.156;2022-12-24T14:46:25;43.63;;;17.73;;
16979;SDS011;42288;52.182;21.156;2022-12-24T14:54:50;48.43;;;20.57;;
16979;SDS011;42288;52.182;21.156;2022-12-24T14:57:18;44.03;;;19.77;;
16979;SDS011;42288;52.182;21.156;2022-12-24T15:05:12;42.97;;;19.00;;
16979;SDS011;42288;52.182;21.156;2022-12-24T15:07:43;42.03;;;17.37;;
16979;SDS011;42288;52.182;21.156;2022-12-24T15:10:33;43.87;;;19.63;;
16979;SDS011;42288;52.182;21.156;2022-12-24T15:13:02;41.83;;;18.73;;
16979;SDS011;42288;52.182;21.156;2022-12-24T15:15:41;50.00;;;22.53;;
16979;SDS011;42288;52.182;21.156;2022-12-24T15:18:10;42.77;;;21.20;;
16979;SDS011;42288;52.182;21.156;2022-12-24T15:20:41;41.63;;;18.17;;
16979;SDS011;42288;52.182;21.156;2022-12-24T15:23:17;44.90;;;19.63;;
16979;SDS011;42288;52.182;21.156;2022-12-24T15:25:49;38.83;;;18.43;;
16979;SDS011;42288;52.182;21.156;2022-12-24T15:28:16;33.90;;;15.67;;
16979;SDS011;42288;52.182;21.156;2022-12-24T15:30:47;40.23;;;17.63;;
16979;SDS011;42288;52.182;21.156;2022-12-24T15:33:12;34.97;;;15.50;;
16979;SDS011;42288;52.182;21.156;2022-12-24T15:38:21;31.63;;;13.70;;
16979;SDS011;42288;52.182;21.156;2022-12-24T15:40:47;41.93;;;18.40;;
16979;SDS011;42288;52.182;21.156;2022-12-24T15:43:14;35.50;;;16.83;;
16979;SDS011;42288;52.182;21.156;2022-12-24T15:45:41;34.43;;;17.50;;
16979;SDS011;42288;52.182;21.156;2022-12-24T15:48:09;33.43;;;15.73;;
16979;SDS011;42288;52.182;21.156;2022-12-24T15:50:42;40.07;;;18.07;;
16979;SDS011;42288;52.182;21.156;2022-12-24T15:53:13;38.43;;;17.17;;
16979;SDS011;42288;52.182;21.156;2022-12-24T15:56:39;33.73;;;14.43;;
16979;SDS011;42288;52.182;21.156;2022-12-24T15:59:10;33.80;;;14.90;;
16979;SDS011;42288;52.182;21.156;2022-12-24T16:01:36;38.30;;;17.83;;
16979;SDS011;42288;52.182;21.156;2022-12-24T16:04:10;32.43;;;14.03;;
16979;SDS011;42288;52.182;21.156;2022-12-24T16:06:51;37.00;;;17.13;;
16979;SDS011;42288;52.182;21.156;2022-12-24T16:09:59;40.63;;;16.77;;
16979;SDS011;42288;52.182;21.156;2022-12-24T16:12:37;43.57;;;20.47;;
16979;SDS011;42288;52.182;21.156;2022-12-24T16:15:03;42.90;;;18.80;;
16979;SDS011;42288;52.182;21.156;2022-12-24T16:17:29;35.27;;;16.20;;
16979;SDS011;42288;52.182;21.156;2022-12-24T16:19:59;38.53;;;16.53;;
16979;SDS011;42288;52.182;21.156;2022-12-24T16:22:29;43.60;;;18.60;;
16979;SDS011;42288;52.182;21.156;2022-12-24T16:24:57;40.60;;;19.10;;
16979;SDS011;42288;52.182;21.156;2022-12-24T16:27:24;45.20;;;21.10;;
16979;SDS011;42288;52.182;21.156;2022-12-24T16:29:49;38.37;;;17.43;;